sensor_id;sensor_type;location;lat;lon;timestamp;temperature;humidity
20658;DHT22;10488;50.846;4.078;2024-01-30T00:01:22;10.50;99.90
20658;DHT22;10488;50.846;4.078;2024-01-30T00:03:48;10.50;99.90
20658;DHT22;10488;50.846;4.078;2024-01-30T00:06:13;10.60;99.90
20658;DHT22;10488;50.846;4.078;2024-01-30T00:08:39;10.60;99.90
20658;DHT22;10488;50.846;4.078;2024-01-30T00:11:05;10.60;99.90
20658;DHT22;10488;50.846;4.078;2024-01-30T00:13:30;10.50;99.90
20658;DHT22;10488;50.846;4.078;2024-01-30T00:15:56;10.60;99.90
20658;DHT22;10488;50.846;4.078;2024-01-30T00:18:21;10.60;99.90
20658;DHT22;10488;50.846;4.078;2024-01-30T00:20:47;10.60;99.90
20658;DHT22;10488;50.846;4.078;2024-01-30T00:23:13;10.60;99.90
20658;DHT22;10488;50.846;4.078;2024-01-30T00:25:38;10.60;99.90
20658;DHT22;10488;50.846;4.078;2024-01-30T00:28:04;10.60;99.90
20658;DHT22;10488;50.846;4.078;2024-01-30T00:30:30;10.60;99.90
20658;DHT22;10488;50.846;4.078;2024-01-30T00:32:55;10.60;99.90
20658;DHT22;10488;50.846;4.078;2024-01-30T00:35:21;10.60;99.90
20658;DHT22;10488;50.846;4.078;2024-01-30T00:37:48;10.60;99.90
20658;DHT22;10488;50.846;4.078;2024-01-30T00:40:14;10.60;99.90
20658;DHT22;10488;50.846;4.078;2024-01-30T00:42:44;10.70;99.90
20658;DHT22;10488;50.846;4.078;2024-01-30T00:45:16;10.70;99.90
20658;DHT22;10488;50.846;4.078;2024-01-30T00:47:43;10.70;99.90
20658;DHT22;10488;50.846;4.078;2024-01-30T00:50:09;10.80;99.90
20658;DHT22;10488;50.846;4.078;2024-01-30T00:52:35;10.80;99.90
20658;DHT22;10488;50.846;4.078;2024-01-30T00:55:01;10.80;99.90
20658;DHT22;10488;50.846;4.078;2024-01-30T00:57:28;10.70;99.90
20658;DHT22;10488;50.846;4.078;2024-01-30T00:59:54;10.70;99.90
20658;DHT22;10488;50.846;4.078;2024-01-30T01:02:20;10.70;99.90
20658;DHT22;10488;50.846;4.078;2024-01-30T01:04:45;10.70;99.90
20658;DHT22;10488;50.846;4.078;2024-01-30T01:07:11;10.60;99.90
20658;DHT22;10488;50.846;4.078;2024-01-30T01:09:37;10.60;99.90
20658;DHT22;10488;50.846;4.078;2024-01-30T01:12:03;10.60;99.90
20658;DHT22;10488;50.846;4.078;2024-01-30T01:14:29;10.60;99.90
20658;DHT22;10488;50.846;4.078;2024-01-30T01:16:55;10.60;99.90
20658;DHT22;10488;50.846;4.078;2024-01-30T01:19:21;10.60;99.90
20658;DHT22;10488;50.846;4.078;2024-01-30T01:21:47;10.60;99.90
20658;DHT22;10488;50.846;4.078;2024-01-30T01:24:13;10.50;99.90
20658;DHT22;10488;50.846;4.078;2024-01-30T01:26:39;10.50;99.90
20658;DHT22;10488;50.846;4.078;2024-01-30T01:29:05;10.50;99.90
20658;DHT22;10488;50.846;4.078;2024-01-30T01:31:37;10.50;99.90
20658;DHT22;10488;50.846;4.078;2024-01-30T01:34:12;10.50;99.90
20658;DHT22;10488;50.846;4.078;2024-01-30T01:36:38;10.50;99.90
20658;DHT22;10488;50.846;4.078;2024-01-30T01:39:04;10.50;99.90
20658;DHT22;10488;50.846;4.078;2024-01-30T01:41:33;10.60;99.90
20658;DHT22;10488;50.846;4.078;2024-01-30T01:43:59;10.60;99.90
20658;DHT22;10488;50.846;4.078;2024-01-30T01:46:27;10.50;99.90
20658;DHT22;10488;50.846;4.078;2024-01-30T01:48:55;10.60;99.90
20658;DHT22;10488;50.846;4.078;2024-01-30T01:51:22;10.60;99.90
20658;DHT22;10488;50.846;4.078;2024-01-30T01:53:48;10.60;99.90
20658;DHT22;10488;50.846;4.078;2024-01-30T01:56:14;10.50;99.90
20658;DHT22;10488;50.846;4.078;2024-01-30T01:58:40;10.50;99.90
20658;DHT22;10488;50.846;4.078;2024-01-30T02:01:07;10.50;99.90
20658;DHT22;10488;50.846;4.078;2024-01-30T02:03:34;10.60;99.90
20658;DHT22;10488;50.846;4.078;2024-01-30T02:06:00;10.60;99.90
20658;DHT22;10488;50.846;4.078;2024-01-30T02:08:27;10.50;99.90
20658;DHT22;10488;50.846;4.078;2024-01-30T02:10:53;10.50;99.90
20658;DHT22;10488;50.846;4.078;2024-01-30T02:13:20;10.50;99.90
20658;DHT22;10488;50.846;4.078;2024-01-30T02:15:49;10.50;99.90
20658;DHT22;10488;50.846;4.078;2024-01-30T02:18:15;10.60;99.90
20658;DHT22;10488;50.846;4.078;2024-01-30T02:20:41;10.60;99.90
20658;DHT22;10488;50.846;4.078;2024-01-30T02:23:09;10.60;99.90
20658;DHT22;10488;50.846;4.078;2024-01-30T02:25:40;10.60;99.90
20658;DHT22;10488;50.846;4.078;2024-01-30T02:28:14;10.60;99.90
20658;DHT22;10488;50.846;4.078;2024-01-30T02:30:40;10.80;99.90
20658;DHT22;10488;50.846;4.078;2024-01-30T02:33:08;10.80;99.90
20658;DHT22;10488;50.846;4.078;2024-01-30T02:35:33;10.80;99.90
20658;DHT22;10488;50.846;4.078;2024-01-30T02:37:59;10.80;99.90
20658;DHT22;10488;50.846;4.078;2024-01-30T02:40:25;10.80;99.90
20658;DHT22;10488;50.846;4.078;2024-01-30T02:42:51;10.80;99.90
20658;DHT22;10488;50.846;4.078;2024-01-30T02:45:16;10.80;99.90
20658;DHT22;10488;50.846;4.078;2024-01-30T02:47:42;10.80;99.90
20658;DHT22;10488;50.846;4.078;2024-01-30T02:50:08;10.80;99.90
20658;DHT22;10488;50.846;4.078;2024-01-30T02:52:34;10.80;99.90
20658;DHT22;10488;50.846;4.078;2024-01-30T02:55:00;10.80;99.90
20658;DHT22;10488;50.846;4.078;2024-01-30T02:57:25;10.80;99.90
20658;DHT22;10488;50.846;4.078;2024-01-30T02:59:51;10.90;99.90
20658;DHT22;10488;50.846;4.078;2024-01-30T03:02:17;10.80;99.90
20658;DHT22;10488;50.846;4.078;2024-01-30T03:04:42;10.80;99.90
20658;DHT22;10488;50.846;4.078;2024-01-30T03:07:09;10.90;99.90
20658;DHT22;10488;50.846;4.078;2024-01-30T03:09:35;10.90;99.90
20658;DHT22;10488;50.846;4.078;2024-01-30T03:12:00;10.80;99.90
20658;DHT22;10488;50.846;4.078;2024-01-30T03:14:26;10.80;99.90
20658;DHT22;10488;50.846;4.078;2024-01-30T03:16:52;10.80;99.90
20658;DHT22;10488;50.846;4.078;2024-01-30T03:19:17;10.90;99.90
20658;DHT22;10488;50.846;4.078;2024-01-30T03:21:44;10.90;99.90
20658;DHT22;10488;50.846;4.078;2024-01-30T03:24:10;10.90;99.90
20658;DHT22;10488;50.846;4.078;2024-01-30T03:26:35;10.70;99.90
20658;DHT22;10488;50.846;4.078;2024-01-30T03:29:01;10.70;99.90
20658;DHT22;10488;50.846;4.078;2024-01-30T03:31:27;10.70;99.90
20658;DHT22;10488;50.846;4.078;2024-01-30T03:33:52;10.70;99.90
20658;DHT22;10488;50.846;4.078;2024-01-30T03:36:18;10.70;99.90
20658;DHT22;10488;50.846;4.078;2024-01-30T03:38:44;10.70;99.90
20658;DHT22;10488;50.846;4.078;2024-01-30T03:41:10;10.70;99.90
20658;DHT22;10488;50.846;4.078;2024-01-30T03:43:36;10.70;99.90
20658;DHT22;10488;50.846;4.078;2024-01-30T03:46:02;10.70;99.90
20658;DHT22;10488;50.846;4.078;2024-01-30T03:48:28;10.60;99.90
20658;DHT22;10488;50.846;4.078;2024-01-30T03:50:54;10.60;99.90
20658;DHT22;10488;50.846;4.078;2024-01-30T03:53:20;10.50;99.90
20658;DHT22;10488;50.846;4.078;2024-01-30T03:55:45;10.50;99.90
20658;DHT22;10488;50.846;4.078;2024-01-30T03:58:11;10.50;99.90
20658;DHT22;10488;50.846;4.078;2024-01-30T04:00:37;10.40;99.90
20658;DHT22;10488;50.846;4.078;2024-01-30T04:03:03;10.40;99.90
20658;DHT22;10488;50.846;4.078;2024-01-30T04:05:28;10.30;99.90
20658;DHT22;10488;50.846;4.078;2024-01-30T04:07:54;10.30;99.90
20658;DHT22;10488;50.846;4.078;2024-01-30T04:10:20;10.30;99.90
20658;DHT22;10488;50.846;4.078;2024-01-30T04:12:45;10.30;99.90
20658;DHT22;10488;50.846;4.078;2024-01-30T04:15:11;10.30;99.90
20658;DHT22;10488;50.846;4.078;2024-01-30T04:17:36;10.30;99.90
20658;DHT22;10488;50.846;4.078;2024-01-30T04:20:02;10.30;99.90
20658;DHT22;10488;50.846;4.078;2024-01-30T04:22:28;10.30;99.90
20658;DHT22;10488;50.846;4.078;2024-01-30T04:24:54;10.30;99.90
20658;DHT22;10488;50.846;4.078;2024-01-30T04:27:19;10.20;99.90
20658;DHT22;10488;50.846;4.078;2024-01-30T04:29:45;10.30;99.90
20658;DHT22;10488;50.846;4.078;2024-01-30T04:32:10;10.30;99.90
20658;DHT22;10488;50.846;4.078;2024-01-30T04:34:36;10.30;99.90
20658;DHT22;10488;50.846;4.078;2024-01-30T04:37:02;10.30;99.90
20658;DHT22;10488;50.846;4.078;2024-01-30T04:39:28;10.20;99.90
20658;DHT22;10488;50.846;4.078;2024-01-30T04:41:54;10.30;99.90
20658;DHT22;10488;50.846;4.078;2024-01-30T04:44:20;10.30;99.90
20658;DHT22;10488;50.846;4.078;2024-01-30T04:46:45;10.30;99.90
20658;DHT22;10488;50.846;4.078;2024-01-30T04:49:11;10.40;99.90
20658;DHT22;10488;50.846;4.078;2024-01-30T04:51:37;10.40;99.90
20658;DHT22;10488;50.846;4.078;2024-01-30T04:54:02;10.40;99.90
20658;DHT22;10488;50.846;4.078;2024-01-30T04:56:28;10.50;99.90
20658;DHT22;10488;50.846;4.078;2024-01-30T04:58:53;10.60;99.90
20658;DHT22;10488;50.846;4.078;2024-01-30T05:01:19;10.50;99.90
20658;DHT22;10488;50.846;4.078;2024-01-30T05:03:45;10.60;99.90
20658;DHT22;10488;50.846;4.078;2024-01-30T05:06:10;10.60;99.90
20658;DHT22;10488;50.846;4.078;2024-01-30T05:08:36;10.50;99.90
20658;DHT22;10488;50.846;4.078;2024-01-30T05:11:05;10.50;99.90
20658;DHT22;10488;50.846;4.078;2024-01-30T05:13:31;10.40;99.90
20658;DHT22;10488;50.846;4.078;2024-01-30T05:15:57;10.40;99.90
20658;DHT22;10488;50.846;4.078;2024-01-30T05:18:22;10.30;99.90
20658;DHT22;10488;50.846;4.078;2024-01-30T05:20:50;10.30;99.90
20658;DHT22;10488;50.846;4.078;2024-01-30T05:23:16;10.40;99.90
20658;DHT22;10488;50.846;4.078;2024-01-30T05:25:42;10.30;99.90
20658;DHT22;10488;50.846;4.078;2024-01-30T05:28:08;10.30;99.90
20658;DHT22;10488;50.846;4.078;2024-01-30T05:30:33;10.40;99.90
20658;DHT22;10488;50.846;4.078;2024-01-30T05:32:59;10.40;99.90
20658;DHT22;10488;50.846;4.078;2024-01-30T05:35:24;10.40;99.90
20658;DHT22;10488;50.846;4.078;2024-01-30T05:37:51;10.40;99.90
20658;DHT22;10488;50.846;4.078;2024-01-30T05:40:17;10.40;99.90
20658;DHT22;10488;50.846;4.078;2024-01-30T05:42:42;10.40;99.90
20658;DHT22;10488;50.846;4.078;2024-01-30T05:45:08;10.30;99.90
20658;DHT22;10488;50.846;4.078;2024-01-30T05:47:37;10.30;99.90
20658;DHT22;10488;50.846;4.078;2024-01-30T05:50:02;10.20;99.90
20658;DHT22;10488;50.846;4.078;2024-01-30T05:52:28;10.10;99.90
20658;DHT22;10488;50.846;4.078;2024-01-30T05:54:54;10.10;99.90
20658;DHT22;10488;50.846;4.078;2024-01-30T05:57:20;10.10;99.90
20658;DHT22;10488;50.846;4.078;2024-01-30T05:59:45;10.10;99.90
20658;DHT22;10488;50.846;4.078;2024-01-30T06:02:13;10.10;99.90
20658;DHT22;10488;50.846;4.078;2024-01-30T06:04:38;10.00;99.90
20658;DHT22;10488;50.846;4.078;2024-01-30T06:07:04;10.10;99.90
20658;DHT22;10488;50.846;4.078;2024-01-30T06:09:31;10.10;99.90
20658;DHT22;10488;50.846;4.078;2024-01-30T06:11:57;10.20;99.90
20658;DHT22;10488;50.846;4.078;2024-01-30T06:14:23;10.20;99.90
20658;DHT22;10488;50.846;4.078;2024-01-30T06:16:49;10.30;99.90
20658;DHT22;10488;50.846;4.078;2024-01-30T06:19:14;10.30;99.90
20658;DHT22;10488;50.846;4.078;2024-01-30T06:21:40;10.40;99.90
20658;DHT22;10488;50.846;4.078;2024-01-30T06:24:06;10.40;99.90
20658;DHT22;10488;50.846;4.078;2024-01-30T06:26:31;10.40;99.90
20658;DHT22;10488;50.846;4.078;2024-01-30T06:28:57;10.30;99.90
20658;DHT22;10488;50.846;4.078;2024-01-30T06:31:23;10.30;99.90
20658;DHT22;10488;50.846;4.078;2024-01-30T06:33:49;10.40;99.90
20658;DHT22;10488;50.846;4.078;2024-01-30T06:36:14;10.40;99.90
20658;DHT22;10488;50.846;4.078;2024-01-30T06:38:41;10.40;99.90
20658;DHT22;10488;50.846;4.078;2024-01-30T06:41:06;10.50;99.90
20658;DHT22;10488;50.846;4.078;2024-01-30T06:43:32;10.50;99.90
20658;DHT22;10488;50.846;4.078;2024-01-30T06:45:58;10.40;99.90
20658;DHT22;10488;50.846;4.078;2024-01-30T06:48:25;10.50;99.90
20658;DHT22;10488;50.846;4.078;2024-01-30T06:50:53;10.40;99.90
20658;DHT22;10488;50.846;4.078;2024-01-30T06:53:19;10.50;99.90
20658;DHT22;10488;50.846;4.078;2024-01-30T06:55:45;10.60;99.90
20658;DHT22;10488;50.846;4.078;2024-01-30T06:58:11;10.60;99.90
20658;DHT22;10488;50.846;4.078;2024-01-30T07:00:37;10.60;99.90
20658;DHT22;10488;50.846;4.078;2024-01-30T07:03:03;10.60;99.90
20658;DHT22;10488;50.846;4.078;2024-01-30T07:05:29;10.60;99.90
20658;DHT22;10488;50.846;4.078;2024-01-30T07:07:54;10.60;99.90
20658;DHT22;10488;50.846;4.078;2024-01-30T07:10:20;10.70;99.90
20658;DHT22;10488;50.846;4.078;2024-01-30T07:12:46;10.70;99.90
20658;DHT22;10488;50.846;4.078;2024-01-30T07:15:12;10.70;99.90
20658;DHT22;10488;50.846;4.078;2024-01-30T07:17:40;10.80;99.90
20658;DHT22;10488;50.846;4.078;2024-01-30T07:20:06;10.70;99.90
20658;DHT22;10488;50.846;4.078;2024-01-30T07:22:32;10.80;99.90
20658;DHT22;10488;50.846;4.078;2024-01-30T07:24:59;10.80;99.90
20658;DHT22;10488;50.846;4.078;2024-01-30T07:27:24;10.80;99.90
20658;DHT22;10488;50.846;4.078;2024-01-30T07:29:50;10.70;99.90
20658;DHT22;10488;50.846;4.078;2024-01-30T07:32:16;10.70;99.90
20658;DHT22;10488;50.846;4.078;2024-01-30T07:34:41;10.70;99.90
20658;DHT22;10488;50.846;4.078;2024-01-30T07:37:07;10.80;99.90
20658;DHT22;10488;50.846;4.078;2024-01-30T07:39:34;10.80;99.90
20658;DHT22;10488;50.846;4.078;2024-01-30T07:42:00;10.80;99.90
20658;DHT22;10488;50.846;4.078;2024-01-30T07:44:25;10.80;99.90
20658;DHT22;10488;50.846;4.078;2024-01-30T07:46:51;10.80;99.90
20658;DHT22;10488;50.846;4.078;2024-01-30T07:49:17;10.70;99.90
20658;DHT22;10488;50.846;4.078;2024-01-30T07:51:42;10.70;99.90
20658;DHT22;10488;50.846;4.078;2024-01-30T07:54:09;10.80;99.90
20658;DHT22;10488;50.846;4.078;2024-01-30T07:56:34;10.80;99.90
20658;DHT22;10488;50.846;4.078;2024-01-30T07:59:00;10.90;99.90
20658;DHT22;10488;50.846;4.078;2024-01-30T08:01:26;10.90;99.90
20658;DHT22;10488;50.846;4.078;2024-01-30T08:03:51;11.00;99.90
20658;DHT22;10488;50.846;4.078;2024-01-30T08:06:17;11.00;99.90
20658;DHT22;10488;50.846;4.078;2024-01-30T08:08:43;11.00;99.90
20658;DHT22;10488;50.846;4.078;2024-01-30T08:11:08;11.10;99.90
20658;DHT22;10488;50.846;4.078;2024-01-30T08:13:34;11.10;99.90
20658;DHT22;10488;50.846;4.078;2024-01-30T08:16:00;11.10;99.90
20658;DHT22;10488;50.846;4.078;2024-01-30T08:18:25;11.10;99.90
20658;DHT22;10488;50.846;4.078;2024-01-30T08:20:51;11.10;99.90
20658;DHT22;10488;50.846;4.078;2024-01-30T08:23:17;11.10;99.90
20658;DHT22;10488;50.846;4.078;2024-01-30T08:25:43;11.30;99.90
20658;DHT22;10488;50.846;4.078;2024-01-30T08:28:08;11.20;99.90
20658;DHT22;10488;50.846;4.078;2024-01-30T08:30:34;11.30;99.90
20658;DHT22;10488;50.846;4.078;2024-01-30T08:33:02;11.40;99.90
20658;DHT22;10488;50.846;4.078;2024-01-30T08:35:28;11.40;99.90
20658;DHT22;10488;50.846;4.078;2024-01-30T08:37:57;11.40;99.90
20658;DHT22;10488;50.846;4.078;2024-01-30T08:40:22;11.40;99.90
20658;DHT22;10488;50.846;4.078;2024-01-30T08:42:48;11.50;99.90
20658;DHT22;10488;50.846;4.078;2024-01-30T08:45:13;11.40;99.90
20658;DHT22;10488;50.846;4.078;2024-01-30T08:47:40;11.50;99.90
20658;DHT22;10488;50.846;4.078;2024-01-30T08:50:06;11.40;99.90
20658;DHT22;10488;50.846;4.078;2024-01-30T08:52:32;11.40;99.90
20658;DHT22;10488;50.846;4.078;2024-01-30T08:54:59;11.50;99.90
20658;DHT22;10488;50.846;4.078;2024-01-30T08:57:25;11.50;99.90
20658;DHT22;10488;50.846;4.078;2024-01-30T08:59:54;11.60;99.90
20658;DHT22;10488;50.846;4.078;2024-01-30T09:02:20;11.60;99.90
20658;DHT22;10488;50.846;4.078;2024-01-30T09:04:46;11.60;99.90
20658;DHT22;10488;50.846;4.078;2024-01-30T09:07:12;11.60;99.90
20658;DHT22;10488;50.846;4.078;2024-01-30T09:09:39;11.70;99.90
20658;DHT22;10488;50.846;4.078;2024-01-30T09:12:07;11.60;99.90
20658;DHT22;10488;50.846;4.078;2024-01-30T09:14:35;11.60;99.90
20658;DHT22;10488;50.846;4.078;2024-01-30T09:17:01;11.60;99.90
20658;DHT22;10488;50.846;4.078;2024-01-30T09:19:28;11.50;99.90
20658;DHT22;10488;50.846;4.078;2024-01-30T09:21:54;11.50;99.90
20658;DHT22;10488;50.846;4.078;2024-01-30T09:24:20;11.60;99.90
20658;DHT22;10488;50.846;4.078;2024-01-30T09:26:45;11.50;99.90
20658;DHT22;10488;50.846;4.078;2024-01-30T09:29:11;11.50;99.90
20658;DHT22;10488;50.846;4.078;2024-01-30T09:31:36;11.40;99.90
20658;DHT22;10488;50.846;4.078;2024-01-30T09:34:02;11.40;99.90
20658;DHT22;10488;50.846;4.078;2024-01-30T09:36:28;11.40;99.90
20658;DHT22;10488;50.846;4.078;2024-01-30T09:38:54;11.50;99.90
20658;DHT22;10488;50.846;4.078;2024-01-30T09:41:20;11.50;99.90
20658;DHT22;10488;50.846;4.078;2024-01-30T09:43:50;11.50;99.90
20658;DHT22;10488;50.846;4.078;2024-01-30T09:46:17;11.50;99.90
20658;DHT22;10488;50.846;4.078;2024-01-30T09:48:48;11.60;99.90
20658;DHT22;10488;50.846;4.078;2024-01-30T09:51:15;11.60;99.90
20658;DHT22;10488;50.846;4.078;2024-01-30T09:53:42;11.60;99.90
20658;DHT22;10488;50.846;4.078;2024-01-30T09:56:09;11.60;99.90
20658;DHT22;10488;50.846;4.078;2024-01-30T09:58:35;11.50;99.90
20658;DHT22;10488;50.846;4.078;2024-01-30T10:01:00;11.70;99.90
20658;DHT22;10488;50.846;4.078;2024-01-30T10:03:26;12.00;99.90
20658;DHT22;10488;50.846;4.078;2024-01-30T10:05:52;12.00;99.90
20658;DHT22;10488;50.846;4.078;2024-01-30T10:08:18;11.90;99.90
20658;DHT22;10488;50.846;4.078;2024-01-30T10:10:47;12.00;99.90
20658;DHT22;10488;50.846;4.078;2024-01-30T10:13:13;12.00;99.90
20658;DHT22;10488;50.846;4.078;2024-01-30T10:15:39;11.90;99.90
20658;DHT22;10488;50.846;4.078;2024-01-30T10:18:06;11.80;99.90
20658;DHT22;10488;50.846;4.078;2024-01-30T10:20:32;11.90;99.90
20658;DHT22;10488;50.846;4.078;2024-01-30T10:22:59;12.10;99.90
20658;DHT22;10488;50.846;4.078;2024-01-30T10:25:25;12.00;99.90
20658;DHT22;10488;50.846;4.078;2024-01-30T10:27:54;12.00;99.90
20658;DHT22;10488;50.846;4.078;2024-01-30T10:30:23;12.00;99.90
20658;DHT22;10488;50.846;4.078;2024-01-30T10:32:49;11.90;99.90
20658;DHT22;10488;50.846;4.078;2024-01-30T10:35:15;11.70;99.90
20658;DHT22;10488;50.846;4.078;2024-01-30T10:37:43;11.60;99.90
20658;DHT22;10488;50.846;4.078;2024-01-30T10:40:12;11.50;99.90
20658;DHT22;10488;50.846;4.078;2024-01-30T10:42:42;11.30;99.90
20658;DHT22;10488;50.846;4.078;2024-01-30T10:47:44;11.30;99.90
20658;DHT22;10488;50.846;4.078;2024-01-30T10:50:11;11.20;99.90
20658;DHT22;10488;50.846;4.078;2024-01-30T10:52:38;11.30;99.90
20658;DHT22;10488;50.846;4.078;2024-01-30T10:55:05;11.40;99.90
20658;DHT22;10488;50.846;4.078;2024-01-30T10:57:34;11.40;99.90
20658;DHT22;10488;50.846;4.078;2024-01-30T11:00:13;11.40;99.90
20658;DHT22;10488;50.846;4.078;2024-01-30T11:02:43;11.40;99.90
20658;DHT22;10488;50.846;4.078;2024-01-30T11:05:09;11.40;99.90
20658;DHT22;10488;50.846;4.078;2024-01-30T11:07:35;11.40;99.90
20658;DHT22;10488;50.846;4.078;2024-01-30T11:10:04;11.60;99.90
20658;DHT22;10488;50.846;4.078;2024-01-30T11:12:33;11.90;99.90
20658;DHT22;10488;50.846;4.078;2024-01-30T11:15:09;11.80;99.90
20658;DHT22;10488;50.846;4.078;2024-01-30T11:17:53;11.90;99.90
20658;DHT22;10488;50.846;4.078;2024-01-30T11:20:21;11.90;99.90
20658;DHT22;10488;50.846;4.078;2024-01-30T11:22:48;12.00;99.90
20658;DHT22;10488;50.846;4.078;2024-01-30T11:25:15;12.00;99.90
20658;DHT22;10488;50.846;4.078;2024-01-30T11:27:45;12.00;99.90
20658;DHT22;10488;50.846;4.078;2024-01-30T11:30:30;12.00;99.90
20658;DHT22;10488;50.846;4.078;2024-01-30T11:38:03;12.20;99.90
20658;DHT22;10488;50.846;4.078;2024-01-30T11:40:30;12.20;99.90
20658;DHT22;10488;50.846;4.078;2024-01-30T11:42:58;12.00;99.90
20658;DHT22;10488;50.846;4.078;2024-01-30T11:45:24;12.00;99.90
20658;DHT22;10488;50.846;4.078;2024-01-30T11:47:50;12.00;99.90
20658;DHT22;10488;50.846;4.078;2024-01-30T11:50:16;11.90;99.90
20658;DHT22;10488;50.846;4.078;2024-01-30T11:52:41;11.90;99.90
20658;DHT22;10488;50.846;4.078;2024-01-30T11:55:09;11.90;99.90
20658;DHT22;10488;50.846;4.078;2024-01-30T11:57:35;11.80;99.90
20658;DHT22;10488;50.846;4.078;2024-01-30T12:00:03;11.70;99.90
20658;DHT22;10488;50.846;4.078;2024-01-30T12:02:36;11.70;99.90
20658;DHT22;10488;50.846;4.078;2024-01-30T12:05:08;11.80;99.90
20658;DHT22;10488;50.846;4.078;2024-01-30T12:07:34;11.80;99.90
20658;DHT22;10488;50.846;4.078;2024-01-30T12:10:01;11.50;99.90
20658;DHT22;10488;50.846;4.078;2024-01-30T12:12:27;11.50;99.90
20658;DHT22;10488;50.846;4.078;2024-01-30T12:14:54;11.30;99.90
20658;DHT22;10488;50.846;4.078;2024-01-30T12:17:31;11.20;99.90
20658;DHT22;10488;50.846;4.078;2024-01-30T12:20:07;11.20;99.90
20658;DHT22;10488;50.846;4.078;2024-01-30T12:22:42;11.00;99.90
20658;DHT22;10488;50.846;4.078;2024-01-30T12:25:09;10.80;99.90
20658;DHT22;10488;50.846;4.078;2024-01-30T12:27:35;11.00;99.90
20658;DHT22;10488;50.846;4.078;2024-01-30T12:30:04;11.10;99.90
20658;DHT22;10488;50.846;4.078;2024-01-30T12:32:30;11.10;99.90
20658;DHT22;10488;50.846;4.078;2024-01-30T12:34:56;11.30;99.90
20658;DHT22;10488;50.846;4.078;2024-01-30T12:37:22;11.20;99.90
20658;DHT22;10488;50.846;4.078;2024-01-30T12:39:51;11.10;99.90
20658;DHT22;10488;50.846;4.078;2024-01-30T12:42:18;11.20;99.90
20658;DHT22;10488;50.846;4.078;2024-01-30T12:44:44;11.30;99.90
20658;DHT22;10488;50.846;4.078;2024-01-30T12:47:10;11.50;99.90
20658;DHT22;10488;50.846;4.078;2024-01-30T12:49:36;11.70;99.90
20658;DHT22;10488;50.846;4.078;2024-01-30T12:52:01;12.10;99.90
20658;DHT22;10488;50.846;4.078;2024-01-30T12:54:28;12.40;99.90
20658;DHT22;10488;50.846;4.078;2024-01-30T12:56:53;12.40;99.90
20658;DHT22;10488;50.846;4.078;2024-01-30T12:59:19;12.50;99.90
20658;DHT22;10488;50.846;4.078;2024-01-30T13:01:45;12.50;99.90
20658;DHT22;10488;50.846;4.078;2024-01-30T13:04:11;12.70;99.90
20658;DHT22;10488;50.846;4.078;2024-01-30T13:06:36;12.60;99.90
20658;DHT22;10488;50.846;4.078;2024-01-30T13:09:02;12.70;99.90
20658;DHT22;10488;50.846;4.078;2024-01-30T13:11:28;12.60;99.90
20658;DHT22;10488;50.846;4.078;2024-01-30T13:13:53;12.10;99.90
20658;DHT22;10488;50.846;4.078;2024-01-30T13:16:19;11.90;99.90
20658;DHT22;10488;50.846;4.078;2024-01-30T13:18:45;11.80;99.90
20658;DHT22;10488;50.846;4.078;2024-01-30T13:21:10;11.80;99.90
20658;DHT22;10488;50.846;4.078;2024-01-30T13:23:36;11.70;99.90
20658;DHT22;10488;50.846;4.078;2024-01-30T13:26:01;11.70;99.90
20658;DHT22;10488;50.846;4.078;2024-01-30T13:28:27;11.60;99.90
20658;DHT22;10488;50.846;4.078;2024-01-30T13:30:53;11.70;99.90
20658;DHT22;10488;50.846;4.078;2024-01-30T13:33:19;11.70;99.90
20658;DHT22;10488;50.846;4.078;2024-01-30T13:35:45;11.70;99.90
20658;DHT22;10488;50.846;4.078;2024-01-30T13:38:10;11.90;99.90
20658;DHT22;10488;50.846;4.078;2024-01-30T13:40:36;11.80;99.90
20658;DHT22;10488;50.846;4.078;2024-01-30T13:43:02;11.70;99.90
20658;DHT22;10488;50.846;4.078;2024-01-30T13:45:28;11.70;99.90
20658;DHT22;10488;50.846;4.078;2024-01-30T13:47:54;11.60;99.90
20658;DHT22;10488;50.846;4.078;2024-01-30T13:50:19;11.40;99.90
20658;DHT22;10488;50.846;4.078;2024-01-30T13:52:45;11.50;99.90
20658;DHT22;10488;50.846;4.078;2024-01-30T13:55:11;11.60;99.90
20658;DHT22;10488;50.846;4.078;2024-01-30T13:57:37;11.60;99.90
20658;DHT22;10488;50.846;4.078;2024-01-30T14:00:04;11.60;99.90
20658;DHT22;10488;50.846;4.078;2024-01-30T14:02:32;11.50;99.90
20658;DHT22;10488;50.846;4.078;2024-01-30T14:04:58;11.50;99.90
20658;DHT22;10488;50.846;4.078;2024-01-30T14:07:24;11.40;99.90
20658;DHT22;10488;50.846;4.078;2024-01-30T14:09:49;11.20;99.90
20658;DHT22;10488;50.846;4.078;2024-01-30T14:12:15;11.10;99.90
20658;DHT22;10488;50.846;4.078;2024-01-30T14:14:41;11.20;99.90
20658;DHT22;10488;50.846;4.078;2024-01-30T14:17:07;11.10;99.90
20658;DHT22;10488;50.846;4.078;2024-01-30T14:19:35;11.10;99.90
20658;DHT22;10488;50.846;4.078;2024-01-30T14:22:01;11.10;99.90
20658;DHT22;10488;50.846;4.078;2024-01-30T14:24:27;11.10;99.90
20658;DHT22;10488;50.846;4.078;2024-01-30T14:26:53;11.00;99.90
20658;DHT22;10488;50.846;4.078;2024-01-30T14:29:19;10.90;99.90
20658;DHT22;10488;50.846;4.078;2024-01-30T14:31:44;10.70;99.90
20658;DHT22;10488;50.846;4.078;2024-01-30T14:34:10;10.70;99.90
20658;DHT22;10488;50.846;4.078;2024-01-30T14:36:39;10.80;99.90
20658;DHT22;10488;50.846;4.078;2024-01-30T14:39:04;10.60;99.90
20658;DHT22;10488;50.846;4.078;2024-01-30T14:41:32;10.80;99.90
20658;DHT22;10488;50.846;4.078;2024-01-30T14:43:58;10.60;99.90
20658;DHT22;10488;50.846;4.078;2024-01-30T14:46:24;10.60;99.90
20658;DHT22;10488;50.846;4.078;2024-01-30T14:48:52;10.80;99.90
20658;DHT22;10488;50.846;4.078;2024-01-30T14:51:17;10.80;99.90
20658;DHT22;10488;50.846;4.078;2024-01-30T14:53:43;10.70;99.90
20658;DHT22;10488;50.846;4.078;2024-01-30T14:56:09;10.70;99.90
20658;DHT22;10488;50.846;4.078;2024-01-30T14:58:36;10.50;99.90
20658;DHT22;10488;50.846;4.078;2024-01-30T15:01:02;10.70;99.90
20658;DHT22;10488;50.846;4.078;2024-01-30T15:03:28;10.80;99.90
20658;DHT22;10488;50.846;4.078;2024-01-30T15:05:56;10.60;99.90
20658;DHT22;10488;50.846;4.078;2024-01-30T15:08:22;10.60;99.90
20658;DHT22;10488;50.846;4.078;2024-01-30T15:10:47;10.70;99.90
20658;DHT22;10488;50.846;4.078;2024-01-30T15:13:13;10.60;99.90
20658;DHT22;10488;50.846;4.078;2024-01-30T15:15:38;10.60;99.90
20658;DHT22;10488;50.846;4.078;2024-01-30T15:18:04;10.70;99.90
20658;DHT22;10488;50.846;4.078;2024-01-30T15:20:30;10.80;99.90
20658;DHT22;10488;50.846;4.078;2024-01-30T15:22:57;10.80;99.90
20658;DHT22;10488;50.846;4.078;2024-01-30T15:25:22;10.70;99.90
20658;DHT22;10488;50.846;4.078;2024-01-30T15:27:48;10.80;99.90
20658;DHT22;10488;50.846;4.078;2024-01-30T15:30:14;10.90;99.90
20658;DHT22;10488;50.846;4.078;2024-01-30T15:32:40;10.80;99.90